sensor_id;sensor_type;location;lat;lon;timestamp;pressure;altitude;pressure_sealevel;temperature;humidity
72308;BME280;60257;42.638;23.376;2022-07-06T00:00:57;94524.44;;;18.89;89.20
72308;BME280;60257;42.638;23.376;2022-07-06T00:03:22;94525.25;;;18.86;89.90
72308;BME280;60257;42.638;23.376;2022-07-06T00:05:47;94533.97;;;18.84;90.01
72308;BME280;60257;42.638;23.376;2022-07-06T00:08:13;94534.00;;;18.77;90.78
72308;BME280;60257;42.638;23.376;2022-07-06T00:10:38;94539.91;;;18.83;90.66
72308;BME280;60257;42.638;23.376;2022-07-06T00:13:04;94539.16;;;18.75;91.70
72308;BME280;60257;42.638;23.376;2022-07-06T00:15:29;94544.69;;;18.72;91.95
72308;BME280;60257;42.638;23.376;2022-07-06T00:17:55;94545.13;;;18.70;92.04
72308;BME280;60257;42.638;23.376;2022-07-06T00:20:20;94546.72;;;18.64;92.83
72308;BME280;60257;42.638;23.376;2022-07-06T00:22:45;94553.88;;;18.58;92.75
72308;BME280;60257;42.638;23.376;2022-07-06T00:25:11;94557.41;;;18.66;92.07
72308;BME280;60257;42.638;23.376;2022-07-06T00:27:36;94566.41;;;18.77;91.36
72308;BME280;60257;42.638;23.376;2022-07-06T00:30:02;94576.34;;;18.71;91.77
72308;BME280;60257;42.638;23.376;2022-07-06T00:32:28;94582.63;;;18.78;91.20
72308;BME280;60257;42.638;23.376;2022-07-06T00:34:54;94592.03;;;18.95;87.94
72308;BME280;60257;42.638;23.376;2022-07-06T00:37:19;94591.31;;;18.77;88.12
72308;BME280;60257;42.638;23.376;2022-07-06T00:39:45;94596.94;;;18.63;88.23
72308;BME280;60257;42.638;23.376;2022-07-06T00:42:10;94591.81;;;18.61;89.49
72308;BME280;60257;42.638;23.376;2022-07-06T00:44:36;94597.34;;;18.61;89.29
72308;BME280;60257;42.638;23.376;2022-07-06T00:47:01;94595.38;;;18.51;91.88
72308;BME280;60257;42.638;23.376;2022-07-06T00:49:27;94591.44;;;18.55;91.48
72308;BME280;60257;42.638;23.376;2022-07-06T00:52:11;94587.47;;;18.49;93.12
72308;BME280;60257;42.638;23.376;2022-07-06T00:54:39;94594.59;;;18.54;94.37
72308;BME280;60257;42.638;23.376;2022-07-06T00:57:07;94582.31;;;18.66;93.79
72308;BME280;60257;42.638;23.376;2022-07-06T00:59:32;94579.91;;;18.68;93.48
72308;BME280;60257;42.638;23.376;2022-07-06T01:01:58;94568.00;;;18.81;93.30
72308;BME280;60257;42.638;23.376;2022-07-06T01:04:23;94566.84;;;18.75;92.89
72308;BME280;60257;42.638;23.376;2022-07-06T01:06:49;94564.06;;;18.72;93.35
72308;BME280;60257;42.638;23.376;2022-07-06T01:09:14;94548.66;;;18.74;93.82
72308;BME280;60257;42.638;23.376;2022-07-06T01:11:40;94546.63;;;18.82;93.05
72308;BME280;60257;42.638;23.376;2022-07-06T01:14:07;94543.84;;;18.82;92.40
72308;BME280;60257;42.638;23.376;2022-07-06T01:16:32;94550.53;;;18.88;92.03
72308;BME280;60257;42.638;23.376;2022-07-06T01:18:57;94554.16;;;18.81;92.03
72308;BME280;60257;42.638;23.376;2022-07-06T01:21:23;94543.38;;;18.94;92.43
72308;BME280;60257;42.638;23.376;2022-07-06T01:23:48;94545.38;;;18.93;92.75
72308;BME280;60257;42.638;23.376;2022-07-06T01:26:19;94545.41;;;18.90;91.58
72308;BME280;60257;42.638;23.376;2022-07-06T01:28:45;94548.97;;;18.87;92.31
72308;BME280;60257;42.638;23.376;2022-07-06T01:31:19;94551.25;;;18.99;91.18
72308;BME280;60257;42.638;23.376;2022-07-06T01:33:45;94549.63;;;19.09;90.66
72308;BME280;60257;42.638;23.376;2022-07-06T01:36:11;94549.09;;;19.24;88.73
72308;BME280;60257;42.638;23.376;2022-07-06T01:38:53;94546.34;;;19.24;89.81
72308;BME280;60257;42.638;23.376;2022-07-06T01:41:20;94551.88;;;19.21;89.85
72308;BME280;60257;42.638;23.376;2022-07-06T01:43:46;94554.31;;;19.15;90.12
72308;BME280;60257;42.638;23.376;2022-07-06T01:46:12;94551.97;;;19.10;89.20
72308;BME280;60257;42.638;23.376;2022-07-06T01:48:38;94550.47;;;18.98;89.88
72308;BME280;60257;42.638;23.376;2022-07-06T01:51:04;94551.03;;;18.76;90.18
72308;BME280;60257;42.638;23.376;2022-07-06T01:53:30;94554.19;;;18.74;90.67
72308;BME280;60257;42.638;23.376;2022-07-06T01:55:56;94562.03;;;18.83;90.30
72308;BME280;60257;42.638;23.376;2022-07-06T01:58:22;94561.38;;;18.61;90.88
72308;BME280;60257;42.638;23.376;2022-07-06T02:00:47;94562.16;;;18.58;92.56
72308;BME280;60257;42.638;23.376;2022-07-06T02:03:13;94571.66;;;18.60;91.96
72308;BME280;60257;42.638;23.376;2022-07-06T02:05:38;94578.69;;;18.76;91.43
72308;BME280;60257;42.638;23.376;2022-07-06T02:08:04;94568.41;;;18.80;91.98
72308;BME280;60257;42.638;23.376;2022-07-06T02:10:32;94573.19;;;18.69;92.46
72308;BME280;60257;42.638;23.376;2022-07-06T02:12:58;94567.72;;;18.54;92.24
72308;BME280;60257;42.638;23.376;2022-07-06T02:15:23;94570.41;;;18.69;90.91
72308;BME280;60257;42.638;23.376;2022-07-06T02:17:49;94560.59;;;18.57;91.02
72308;BME280;60257;42.638;23.376;2022-07-06T02:20:14;94570.13;;;18.45;90.98
72308;BME280;60257;42.638;23.376;2022-07-06T02:22:40;94578.78;;;18.51;90.23
72308;BME280;60257;42.638;23.376;2022-07-06T02:25:05;94573.25;;;18.47;89.37
72308;BME280;60257;42.638;23.376;2022-07-06T02:27:31;94582.75;;;18.50;89.14
72308;BME280;60257;42.638;23.376;2022-07-06T02:29:56;94572.44;;;18.57;88.70
72308;BME280;60257;42.638;23.376;2022-07-06T02:32:22;94575.59;;;18.52;89.43
72308;BME280;60257;42.638;23.376;2022-07-06T02:34:48;94559.84;;;18.46;91.19
72308;BME280;60257;42.638;23.376;2022-07-06T02:37:13;94566.56;;;18.38;92.14
72308;BME280;60257;42.638;23.376;2022-07-06T02:39:39;94570.97;;;18.32;92.14
72308;BME280;60257;42.638;23.376;2022-07-06T02:42:04;94568.56;;;18.34;92.35
72308;BME280;60257;42.638;23.376;2022-07-06T02:44:30;94572.53;;;18.33;91.98
72308;BME280;60257;42.638;23.376;2022-07-06T02:46:55;94574.09;;;18.34;92.08
72308;BME280;60257;42.638;23.376;2022-07-06T02:49:21;94571.34;;;18.34;91.51
72308;BME280;60257;42.638;23.376;2022-07-06T02:51:46;94574.94;;;18.27;89.66
72308;BME280;60257;42.638;23.376;2022-07-06T02:54:11;94562.69;;;18.25;90.92
72308;BME280;60257;42.638;23.376;2022-07-06T02:56:37;94564.59;;;18.45;90.02
72308;BME280;60257;42.638;23.376;2022-07-06T02:59:02;94571.31;;;18.44;90.04
72308;BME280;60257;42.638;23.376;2022-07-06T03:01:28;94563.81;;;18.41;90.32
72308;BME280;60257;42.638;23.376;2022-07-06T03:03:53;94563.03;;;18.34;90.71
72308;BME280;60257;42.638;23.376;2022-07-06T03:06:19;94564.22;;;18.40;90.54
72308;BME280;60257;42.638;23.376;2022-07-06T03:08:44;94566.19;;;18.39;90.79
72308;BME280;60257;42.638;23.376;2022-07-06T03:11:10;94559.47;;;18.40;90.53
72308;BME280;60257;42.638;23.376;2022-07-06T03:13:35;94564.22;;;18.36;90.19
72308;BME280;60257;42.638;23.376;2022-07-06T03:16:01;94563.84;;;18.34;90.51
72308;BME280;60257;42.638;23.376;2022-07-06T03:18:26;94559.88;;;18.35;90.12
72308;BME280;60257;42.638;23.376;2022-07-06T03:20:52;94561.03;;;18.38;90.04
72308;BME280;60257;42.638;23.376;2022-07-06T03:23:18;94569.38;;;18.34;89.19
72308;BME280;60257;42.638;23.376;2022-07-06T03:25:43;94578.84;;;18.40;89.40
72308;BME280;60257;42.638;23.376;2022-07-06T03:28:09;94585.13;;;18.44;87.24
72308;BME280;60257;42.638;23.376;2022-07-06T03:30:34;94579.66;;;18.30;88.59
72308;BME280;60257;42.638;23.376;2022-07-06T03:33:00;94587.97;;;18.30;89.11
72308;BME280;60257;42.638;23.376;2022-07-06T03:35:25;94592.72;;;18.26;89.73
72308;BME280;60257;42.638;23.376;2022-07-06T03:37:51;94588.78;;;18.27;90.00
72308;BME280;60257;42.638;23.376;2022-07-06T03:40:16;94596.25;;;18.30;89.75
72308;BME280;60257;42.638;23.376;2022-07-06T03:42:42;94600.97;;;18.33;89.47
72308;BME280;60257;42.638;23.376;2022-07-06T03:45:08;94597.03;;;18.31;89.24
72308;BME280;60257;42.638;23.376;2022-07-06T03:47:33;94596.22;;;18.34;89.30
72308;BME280;60257;42.638;23.376;2022-07-06T03:49:59;94604.94;;;18.36;89.28
72308;BME280;60257;42.638;23.376;2022-07-06T03:52:24;94598.19;;;18.40;89.45
72308;BME280;60257;42.638;23.376;2022-07-06T03:54:50;94595.03;;;18.38;88.84
72308;BME280;60257;42.638;23.376;2022-07-06T03:57:15;94603.31;;;18.38;89.26
72308;BME280;60257;42.638;23.376;2022-07-06T03:59:42;94598.97;;;18.41;89.13
72308;BME280;60257;42.638;23.376;2022-07-06T04:02:07;94597.38;;;18.47;88.94
72308;BME280;60257;42.638;23.376;2022-07-06T04:04:33;94595.81;;;18.46;88.58
72308;BME280;60257;42.638;23.376;2022-07-06T04:06:59;94594.63;;;18.43;88.84
72308;BME280;60257;42.638;23.376;2022-07-06T04:09:25;94597.00;;;18.41;89.33
72308;BME280;60257;42.638;23.376;2022-07-06T04:11:50;94603.69;;;18.47;89.15
72308;BME280;60257;42.638;23.376;2022-07-06T04:14:16;94603.25;;;18.52;89.56
72308;BME280;60257;42.638;23.376;2022-07-06T04:16:41;94610.78;;;18.59;88.21
72308;BME280;60257;42.638;23.376;2022-07-06T04:19:07;94611.56;;;18.63;87.46
72308;BME280;60257;42.638;23.376;2022-07-06T04:21:32;94611.78;;;18.97;86.37
72308;BME280;60257;42.638;23.376;2022-07-06T04:23:58;94607.47;;;18.89;85.28
72308;BME280;60257;42.638;23.376;2022-07-06T04:26:23;94608.63;;;18.95;86.69
72308;BME280;60257;42.638;23.376;2022-07-06T04:28:49;94601.84;;;19.03;84.89
72308;BME280;60257;42.638;23.376;2022-07-06T04:31:14;94608.88;;;19.18;84.62
72308;BME280;60257;42.638;23.376;2022-07-06T04:33:41;94609.53;;;19.36;82.51
72308;BME280;60257;42.638;23.376;2022-07-06T04:36:08;94607.47;;;19.55;78.83
72308;BME280;60257;42.638;23.376;2022-07-06T04:38:34;94619.44;;;19.44;80.50
72308;BME280;60257;42.638;23.376;2022-07-06T04:40:59;94612.66;;;19.42;81.22
72308;BME280;60257;42.638;23.376;2022-07-06T04:43:25;94611.88;;;19.45;79.83
72308;BME280;60257;42.638;23.376;2022-07-06T04:45:50;94620.94;;;19.53;81.59
72308;BME280;60257;42.638;23.376;2022-07-06T04:48:16;94630.34;;;19.62;80.45
72308;BME280;60257;42.638;23.376;2022-07-06T04:50:41;94622.28;;;19.82;77.02
72308;BME280;60257;42.638;23.376;2022-07-06T04:53:07;94633.38;;;19.82;78.47
72308;BME280;60257;42.638;23.376;2022-07-06T04:55:32;94631.56;;;20.06;79.10
72308;BME280;60257;42.638;23.376;2022-07-06T04:57:57;94640.56;;;20.17;75.14
72308;BME280;60257;42.638;23.376;2022-07-06T05:00:23;94643.25;;;20.27;76.50
72308;BME280;60257;42.638;23.376;2022-07-06T05:02:49;94660.84;;;20.51;74.99
72308;BME280;60257;42.638;23.376;2022-07-06T05:05:14;94660.88;;;20.48;74.99
72308;BME280;60257;42.638;23.376;2022-07-06T05:07:40;94651.91;;;20.29;74.73
72308;BME280;60257;42.638;23.376;2022-07-06T05:10:09;94657.09;;;20.27;76.41
72308;BME280;60257;42.638;23.376;2022-07-06T05:12:36;94660.81;;;20.55;73.41
72308;BME280;60257;42.638;23.376;2022-07-06T05:15:02;94654.91;;;20.49;74.49
72308;BME280;60257;42.638;23.376;2022-07-06T05:17:28;94664.66;;;20.23;73.65
72308;BME280;60257;42.638;23.376;2022-07-06T05:19:53;94666.19;;;19.87;74.91
72308;BME280;60257;42.638;23.376;2022-07-06T05:22:19;94666.63;;;19.82;75.86
72308;BME280;60257;42.638;23.376;2022-07-06T05:24:44;94668.44;;;19.99;74.41
72308;BME280;60257;42.638;23.376;2022-07-06T05:27:10;94678.47;;;19.86;75.26
72308;BME280;60257;42.638;23.376;2022-07-06T05:29:35;94680.84;;;19.87;74.96
72308;BME280;60257;42.638;23.376;2022-07-06T05:32:01;94669.44;;;19.75;74.54
72308;BME280;60257;42.638;23.376;2022-07-06T05:34:27;94685.78;;;19.62;75.68
72308;BME280;60257;42.638;23.376;2022-07-06T05:36:53;94681.50;;;19.51;76.02
72308;BME280;60257;42.638;23.376;2022-07-06T05:39:18;94672.06;;;19.44;75.88
72308;BME280;60257;42.638;23.376;2022-07-06T05:41:46;94684.34;;;19.36;76.65
72308;BME280;60257;42.638;23.376;2022-07-06T05:44:12;94684.69;;;19.49;76.56
72308;BME280;60257;42.638;23.376;2022-07-06T05:46:37;94684.13;;;19.72;75.76
72308;BME280;60257;42.638;23.376;2022-07-06T05:49:03;94679.03;;;19.67;74.14
72308;BME280;60257;42.638;23.376;2022-07-06T05:51:46;94691.28;;;19.66;73.70
72308;BME280;60257;42.638;23.376;2022-07-06T05:54:12;94696.91;;;19.55;73.02
72308;BME280;60257;42.638;23.376;2022-07-06T05:56:37;94682.28;;;19.51;75.19
72308;BME280;60257;42.638;23.376;2022-07-06T05:59:03;94690.44;;;19.76;74.91
72308;BME280;60257;42.638;23.376;2022-07-06T06:01:28;94686.78;;;19.86;73.22
72308;BME280;60257;42.638;23.376;2022-07-06T06:03:54;94689.78;;;20.06;72.53
72308;BME280;60257;42.638;23.376;2022-07-06T06:06:19;94693.53;;;20.29;71.46
72308;BME280;60257;42.638;23.376;2022-07-06T06:08:45;94697.44;;;20.39;70.93
72308;BME280;60257;42.638;23.376;2022-07-06T06:11:10;94690.94;;;20.53;71.55
72308;BME280;60257;42.638;23.376;2022-07-06T06:13:36;94692.53;;;20.54;70.38
72308;BME280;60257;42.638;23.376;2022-07-06T06:16:01;94694.09;;;20.55;70.80
72308;BME280;60257;42.638;23.376;2022-07-06T06:18:27;94697.28;;;20.53;69.39
72308;BME280;60257;42.638;23.376;2022-07-06T06:20:52;94689.53;;;20.38;70.03
72308;BME280;60257;42.638;23.376;2022-07-06T06:23:18;94688.31;;;20.42;70.76
72308;BME280;60257;42.638;23.376;2022-07-06T06:25:43;94696.03;;;20.58;71.31
72308;BME280;60257;42.638;23.376;2022-07-06T06:28:10;94686.03;;;20.67;69.93
72308;BME280;60257;42.638;23.376;2022-07-06T06:30:37;94691.47;;;20.78;68.81
72308;BME280;60257;42.638;23.376;2022-07-06T06:33:13;94688.34;;;20.72;69.99
72308;BME280;60257;42.638;23.376;2022-07-06T06:35:47;94684.47;;;21.00;69.87
72308;BME280;60257;42.638;23.376;2022-07-06T06:38:13;94678.63;;;20.91;68.58
72308;BME280;60257;42.638;23.376;2022-07-06T06:40:39;94677.19;;;21.13;68.59
72308;BME280;60257;42.638;23.376;2022-07-06T06:43:05;94690.72;;;21.08;68.74
72308;BME280;60257;42.638;23.376;2022-07-06T06:45:30;94686.31;;;21.14;68.12
72308;BME280;60257;42.638;23.376;2022-07-06T06:47:56;94682.59;;;21.24;68.55
72308;BME280;60257;42.638;23.376;2022-07-06T06:50:21;94686.53;;;21.27;68.14
72308;BME280;60257;42.638;23.376;2022-07-06T06:52:49;94684.66;;;21.47;67.63
72308;BME280;60257;42.638;23.376;2022-07-06T06:55:14;94685.50;;;21.44;67.90
72308;BME280;60257;42.638;23.376;2022-07-06T06:57:40;94683.19;;;21.39;67.66
72308;BME280;60257;42.638;23.376;2022-07-06T07:00:06;94691.06;;;21.44;67.50
72308;BME280;60257;42.638;23.376;2022-07-06T07:02:32;94679.34;;;21.56;67.22
72308;BME280;60257;42.638;23.376;2022-07-06T07:04:57;94680.88;;;21.60;67.35
72308;BME280;60257;42.638;23.376;2022-07-06T07:07:23;94683.84;;;21.50;68.60
72308;BME280;60257;42.638;23.376;2022-07-06T07:09:48;94685.16;;;21.92;67.08
72308;BME280;60257;42.638;23.376;2022-07-06T07:12:13;94689.94;;;22.18;65.56
72308;BME280;60257;42.638;23.376;2022-07-06T07:14:42;94683.69;;;22.57;63.74
72308;BME280;60257;42.638;23.376;2022-07-06T07:17:07;94685.44;;;22.91;62.57
72308;BME280;60257;42.638;23.376;2022-07-06T07:19:33;94682.22;;;22.92;63.36
72308;BME280;60257;42.638;23.376;2022-07-06T07:21:58;94687.22;;;23.01;62.54
72308;BME280;60257;42.638;23.376;2022-07-06T07:24:24;94680.75;;;22.64;63.75
72308;BME280;60257;42.638;23.376;2022-07-06T07:26:49;94677.53;;;22.23;63.86
72308;BME280;60257;42.638;23.376;2022-07-06T07:29:15;94678.38;;;21.70;65.20
72308;BME280;60257;42.638;23.376;2022-07-06T07:31:41;94678.63;;;21.79;65.91
72308;BME280;60257;42.638;23.376;2022-07-06T07:34:06;94684.78;;;21.93;65.05
72308;BME280;60257;42.638;23.376;2022-07-06T07:36:32;94677.94;;;21.71;65.68
72308;BME280;60257;42.638;23.376;2022-07-06T07:38:58;94678.41;;;21.66;65.85
72308;BME280;60257;42.638;23.376;2022-07-06T07:41:23;94679.25;;;21.63;66.51
72308;BME280;60257;42.638;23.376;2022-07-06T07:43:49;94666.28;;;21.80;65.88
72308;BME280;60257;42.638;23.376;2022-07-06T07:46:14;94677.94;;;21.98;65.08
72308;BME280;60257;42.638;23.376;2022-07-06T07:48:40;94674.47;;;21.90;65.81
72308;BME280;60257;42.638;23.376;2022-07-06T07:51:05;94668.56;;;21.61;64.89
72308;BME280;60257;42.638;23.376;2022-07-06T07:53:31;94670.13;;;21.63;65.76
72308;BME280;60257;42.638;23.376;2022-07-06T07:55:56;94666.25;;;21.56;65.40
72308;BME280;60257;42.638;23.376;2022-07-06T07:58:21;94666.09;;;21.67;64.90
72308;BME280;60257;42.638;23.376;2022-07-06T08:00:47;94667.63;;;21.45;65.77
72308;BME280;60257;42.638;23.376;2022-07-06T08:03:12;94674.22;;;21.54;66.36
72308;BME280;60257;42.638;23.376;2022-07-06T08:05:38;94674.66;;;21.23;66.48
72308;BME280;60257;42.638;23.376;2022-07-06T08:08:04;94668.66;;;21.28;67.39
72308;BME280;60257;42.638;23.376;2022-07-06T08:10:30;94677.38;;;21.30;66.20
72308;BME280;60257;42.638;23.376;2022-07-06T08:12:55;94666.06;;;21.13;66.04
72308;BME280;60257;42.638;23.376;2022-07-06T08:15:21;94669.13;;;21.23;66.57
72308;BME280;60257;42.638;23.376;2022-07-06T08:17:46;94673.84;;;21.26;67.50
72308;BME280;60257;42.638;23.376;2022-07-06T08:20:12;94673.78;;;21.29;66.45
72308;BME280;60257;42.638;23.376;2022-07-06T08:22:38;94670.28;;;21.52;65.21
72308;BME280;60257;42.638;23.376;2022-07-06T08:25:05;94671.91;;;21.76;65.83
72308;BME280;60257;42.638;23.376;2022-07-06T08:27:30;94671.44;;;21.81;64.64
72308;BME280;60257;42.638;23.376;2022-07-06T08:29:56;94677.00;;;21.81;65.34
72308;BME280;60257;42.638;23.376;2022-07-06T08:32:21;94675.31;;;21.87;64.72
72308;BME280;60257;42.638;23.376;2022-07-06T08:34:47;94672.25;;;22.05;64.70
72308;BME280;60257;42.638;23.376;2022-07-06T08:37:13;94676.69;;;22.26;62.40
72308;BME280;60257;42.638;23.376;2022-07-06T08:39:39;94674.13;;;22.35;62.84
72308;BME280;60257;42.638;23.376;2022-07-06T08:42:05;94671.69;;;22.60;62.56
72308;BME280;60257;42.638;23.376;2022-07-06T08:44:32;94658.84;;;22.66;62.98
72308;BME280;60257;42.638;23.376;2022-07-06T08:47:06;94663.25;;;22.87;61.50
72308;BME280;60257;42.638;23.376;2022-07-06T08:49:33;94658.22;;;22.78;61.85
72308;BME280;60257;42.638;23.376;2022-07-06T08:52:00;94662.00;;;22.88;61.09
72308;BME280;60257;42.638;23.376;2022-07-06T08:54:27;94667.03;;;22.97;59.73
72308;BME280;60257;42.638;23.376;2022-07-06T08:56:53;94666.28;;;22.93;60.30
72308;BME280;60257;42.638;23.376;2022-07-06T08:59:19;94670.31;;;22.92;60.67
72308;BME280;60257;42.638;23.376;2022-07-06T09:04:12;94667.28;;;22.82;60.97
72308;BME280;60257;42.638;23.376;2022-07-06T09:06:42;94667.84;;;23.13;59.40
72308;BME280;60257;42.638;23.376;2022-07-06T09:09:09;94672.41;;;23.23;60.45
72308;BME280;60257;42.638;23.376;2022-07-06T09:11:34;94664.25;;;22.97;62.95
72308;BME280;60257;42.638;23.376;2022-07-06T09:14:01;94667.50;;;23.11;61.03
72308;BME280;60257;42.638;23.376;2022-07-06T09:16:28;94661.56;;;23.09;60.40
72308;BME280;60257;42.638;23.376;2022-07-06T09:18:56;94665.41;;;23.35;60.03
72308;BME280;60257;42.638;23.376;2022-07-06T09:21:27;94661.19;;;23.47;58.37
72308;BME280;60257;42.638;23.376;2022-07-06T09:23:57;94661.19;;;23.47;59.52
72308;BME280;60257;42.638;23.376;2022-07-06T09:26:24;94668.00;;;23.26;60.29
72308;BME280;60257;42.638;23.376;2022-07-06T09:28:50;94664.06;;;23.23;60.25
72308;BME280;60257;42.638;23.376;2022-07-06T09:31:16;94669.13;;;23.28;60.87
72308;BME280;60257;42.638;23.376;2022-07-06T09:36:45;94672.31;;;23.83;58.60
72308;BME280;60257;42.638;23.376;2022-07-06T09:41:53;94672.53;;;23.36;60.58
72308;BME280;60257;42.638;23.376;2022-07-06T09:44:31;94657.97;;;23.48;60.23
72308;BME280;60257;42.638;23.376;2022-07-06T09:47:00;94655.66;;;23.43;60.88
72308;BME280;60257;42.638;23.376;2022-07-06T09:49:26;94662.09;;;23.40;60.72
72308;BME280;60257;42.638;23.376;2022-07-06T09:51:53;94648.72;;;23.51;59.54
72308;BME280;60257;42.638;23.376;2022-07-06T09:54:20;94640.72;;;23.53;58.78
72308;BME280;60257;42.638;23.376;2022-07-06T09:56:47;94646.16;;;23.41;59.07
72308;BME280;60257;42.638;23.376;2022-07-06T09:59:49;94640.22;;;23.39;59.07
72308;BME280;60257;42.638;23.376;2022-07-06T10:02:15;94647.53;;;23.68;59.45
72308;BME280;60257;42.638;23.376;2022-07-06T10:04:44;94649.22;;;23.98;58.76
72308;BME280;60257;42.638;23.376;2022-07-06T10:07:11;94638.78;;;24.19;57.18
72308;BME280;60257;42.638;23.376;2022-07-06T10:09:37;94638.22;;;24.69;56.81
72308;BME280;60257;42.638;23.376;2022-07-06T10:12:05;94641.81;;;24.98;55.49
72308;BME280;60257;42.638;23.376;2022-07-06T10:14:36;94642.16;;;25.00;55.11
72308;BME280;60257;42.638;23.376;2022-07-06T10:17:03;94634.94;;;24.86;54.94
72308;BME280;60257;42.638;23.376;2022-07-06T10:19:31;94634.69;;;24.81;55.69
72308;BME280;60257;42.638;23.376;2022-07-06T10:22:02;94637.25;;;25.04;55.01
72308;BME280;60257;42.638;23.376;2022-07-06T10:24:29;94630.69;;;25.11;54.08
72308;BME280;60257;42.638;23.376;2022-07-06T10:26:56;94630.75;;;24.78;54.32
72308;BME280;60257;42.638;23.376;2022-07-06T10:29:21;94627.72;;;24.44;54.78
72308;BME280;60257;42.638;23.376;2022-07-06T10:31:48;94637.34;;;24.43;56.01
72308;BME280;60257;42.638;23.376;2022-07-06T10:34:18;94631.41;;;24.25;56.42
72308;BME280;60257;42.638;23.376;2022-07-06T10:36:52;94628.69;;;24.05;56.27
72308;BME280;60257;42.638;23.376;2022-07-06T10:39:37;94622.03;;;24.19;55.41
72308;BME280;60257;42.638;23.376;2022-07-06T10:42:47;94620.97;;;24.29;56.15
72308;BME280;60257;42.638;23.376;2022-07-06T10:45:22;94621.59;;;24.49;56.43
72308;BME280;60257;42.638;23.376;2022-07-06T10:50:45;94620.06;;;24.48;55.09
72308;BME280;60257;42.638;23.376;2022-07-06T10:53:14;94616.06;;;24.62;55.48
72308;BME280;60257;42.638;23.376;2022-07-06T10:55:43;94625.31;;;24.30;55.65
72308;BME280;60257;42.638;23.376;2022-07-06T10:58:09;94624.19;;;24.27;55.60
72308;BME280;60257;42.638;23.376;2022-07-06T11:00:55;94626.56;;;24.29;56.10
72308;BME280;60257;42.638;23.376;2022-07-06T11:03:40;94626.25;;;24.39;56.27
72308;BME280;60257;42.638;23.376;2022-07-06T11:06:10;94625.38;;;24.42;54.82
72308;BME280;60257;42.638;23.376;2022-07-06T11:11:11;94624.06;;;24.47;54.35
72308;BME280;60257;42.638;23.376;2022-07-06T11:16:14;94621.69;;;24.74;54.04
72308;BME280;60257;42.638;23.376;2022-07-06T11:18:41;94603.81;;;24.72;54.75
72308;BME280;60257;42.638;23.376;2022-07-06T11:21:22;94616.59;;;24.85;53.92
72308;BME280;60257;42.638;23.376;2022-07-06T11:23:50;94609.72;;;25.02;53.15
72308;BME280;60257;42.638;23.376;2022-07-06T11:26:17;94612.34;;;25.10;53.84
72308;BME280;60257;42.638;23.376;2022-07-06T11:28:45;94608.75;;;25.22;52.13
72308;BME280;60257;42.638;23.376;2022-07-06T11:31:11;94615.78;;;25.01;52.64
72308;BME280;60257;42.638;23.376;2022-07-06T11:33:36;94590.66;;;24.85;52.44
72308;BME280;60257;42.638;23.376;2022-07-06T11:38:36;94597.16;;;25.49;51.59
72308;BME280;60257;42.638;23.376;2022-07-06T11:41:02;94596.13;;;25.42;51.87
72308;BME280;60257;42.638;23.376;2022-07-06T11:43:27;94582.72;;;25.37;50.98
72308;BME280;60257;42.638;23.376;2022-07-06T11:45:53;94595.91;;;25.24;51.80
72308;BME280;60257;42.638;23.376;2022-07-06T11:48:18;94584.53;;;25.31;51.96
72308;BME280;60257;42.638;23.376;2022-07-06T11:50:57;94582.19;;;24.88;51.54
72308;BME280;60257;42.638;23.376;2022-07-06T11:53:22;94572.19;;;24.75;52.41
72308;BME280;60257;42.638;23.376;2022-07-06T11:55:48;94576.44;;;24.67;52.85
72308;BME280;60257;42.638;23.376;2022-07-06T11:58:14;94579.59;;;24.81;51.65
72308;BME280;60257;42.638;23.376;2022-07-06T12:00:39;94571.09;;;24.85;50.97
72308;BME280;60257;42.638;23.376;2022-07-06T12:03:05;94582.13;;;24.92;51.79
72308;BME280;60257;42.638;23.376;2022-07-06T12:05:31;94572.41;;;25.09;50.84
72308;BME280;60257;42.638;23.376;2022-07-06T12:08:06;94560.22;;;25.16;50.35
72308;BME280;60257;42.638;23.376;2022-07-06T12:10:34;94562.25;;;25.28;49.80
72308;BME280;60257;42.638;23.376;2022-07-06T12:13:04;94574.31;;;25.25;49.91
72308;BME280;60257;42.638;23.376;2022-07-06T12:15:29;94562.34;;;25.24;50.12
72308;BME280;60257;42.638;23.376;2022-07-06T12:17:55;94564.72;;;25.26;51.33
72308;BME280;60257;42.638;23.376;2022-07-06T12:20:20;94560.78;;;25.49;49.45
72308;BME280;60257;42.638;23.376;2022-07-06T12:22:46;94565.41;;;25.55;48.10
72308;BME280;60257;42.638;23.376;2022-07-06T12:25:11;94561.69;;;25.45;48.72
72308;BME280;60257;42.638;23.376;2022-07-06T12:27:37;94556.53;;;25.44;50.35
72308;BME280;60257;42.638;23.376;2022-07-06T12:30:12;94571.84;;;25.27;50.49
72308;BME280;60257;42.638;23.376;2022-07-06T12:32:38;94573.72;;;24.92;51.71
72308;BME280;60257;42.638;23.376;2022-07-06T12:37:29;94568.03;;;24.95;50.30
72308;BME280;60257;42.638;23.376;2022-07-06T12:39:55;94576.41;;;24.95;49.26
72308;BME280;60257;42.638;23.376;2022-07-06T12:42:20;94560.34;;;24.83;50.43
72308;BME280;60257;42.638;23.376;2022-07-06T12:44:50;94560.13;;;24.78;50.27
72308;BME280;60257;42.638;23.376;2022-07-06T12:47:21;94557.16;;;24.97;50.03
72308;BME280;60257;42.638;23.376;2022-07-06T12:49:51;94537.41;;;25.17;50.85
72308;BME280;60257;42.638;23.376;2022-07-06T12:52:28;94548.38;;;25.24;50.17
72308;BME280;60257;42.638;23.376;2022-07-06T12:54:54;94547.34;;;25.18;50.92
72308;BME280;60257;42.638;23.376;2022-07-06T12:57:23;94545.38;;;25.31;51.27
72308;BME280;60257;42.638;23.376;2022-07-06T13:02:33;94536.66;;;25.17;49.07
72308;BME280;60257;42.638;23.376;2022-07-06T13:05:09;94553.38;;;25.04;49.41
72308;BME280;60257;42.638;23.376;2022-07-06T13:07:36;94544.88;;;24.95;49.60
72308;BME280;60257;42.638;23.376;2022-07-06T13:10:04;94533.81;;;24.91;50.24
72308;BME280;60257;42.638;23.376;2022-07-06T13:12:30;94536.69;;;24.88;50.67